Time;durP1;ratioP1;P1;durP2;ratioP2;P2;SDS_P1;SDS_P2;PMS_P1;PMS_P2;Temp;Humidity;BMP_temperature;BMP_pressure;BME280_temperature;BME280_humidity;BME280_pressure;Samples;Min_cycle;Max_cycle;Signal;HPM_P1;HPM_P2
2023/12/19 00:00:46;;;;;;;37.97;22.23;;;;;;;4.01;100.00;102300.16;6305125;22;20136;-78
2023/12/19 00:03:11;;;;;;;39.65;19.25;;;;;;;4.11;100.00;102318.72;6304930;22;20003;-79
2023/12/19 00:05:39;;;;;;;36.67;19.45;;;;;;;4.08;100.00;102319.00;6304925;22;20034;-78
2023/12/19 00:08:05;;;;;;;44.80;25.33;;;;;;;4.12;100.00;102309.81;6306371;22;20003;-78
2023/12/19 00:10:33;;;;;;;35.67;19.30;;;;;;;4.14;100.00;102304.38;6304840;22;20011;-80
2023/12/19 00:12:59;;;;;;;37.85;22.67;;;;;;;4.00;100.00;102268.53;6304864;22;20007;-77
2023/12/19 00:15:24;;;;;;;37.28;19.83;;;;;;;4.13;100.00;102302.69;6304943;22;20399;-78
2023/12/19 00:17:50;;;;;;;34.78;19.08;;;;;;;4.17;100.00;102298.81;6304783;22;20014;-79
2023/12/19 00:20:16;;;;;;;37.28;21.17;;;;;;;4.10;100.00;102281.81;6304563;22;20003;-81
2023/12/19 00:22:41;;;;;;;42.05;24.33;;;;;;;4.08;100.00;102278.47;6306251;22;20424;-78
2023/12/19 00:25:07;;;;;;;50.03;27.48;;;;;;;4.04;100.00;102252.22;6304504;22;20006;-79
2023/12/19 00:27:32;;;;;;;40.50;25.02;;;;;;;4.14;100.00;102272.63;6304820;22;20072;-80
2023/12/19 00:29:57;;;;;;;36.03;18.98;;;;;;;4.07;100.00;102272.31;6304754;22;20009;-81
2023/12/19 00:32:23;;;;;;;36.58;22.00;;;;;;;4.10;100.00;102263.28;6304688;22;20061;-79
2023/12/19 00:34:48;;;;;;;47.92;24.70;;;;;;;4.09;100.00;102237.78;6304618;22;20003;-82
2023/12/19 00:37:14;;;;;;;44.60;22.02;;;;;;;4.20;100.00;102250.88;6304719;22;20014;-82
2023/12/19 00:39:39;;;;;;;41.55;23.20;;;;;;;4.18;100.00;102247.53;6306514;22;20011;-79
2023/12/19 00:42:05;;;;;;;45.45;28.52;;;;;;;4.29;100.00;102265.94;6304791;22;20428;-80
2023/12/19 00:44:30;;;;;;;40.97;18.63;;;;;;;4.19;100.00;102259.78;6304135;22;20007;-79
2023/12/19 00:46:55;;;;;;;46.55;20.73;;;;;;;4.09;100.00;102235.97;6306268;22;20056;-79
2023/12/19 00:49:21;;;;;;;45.63;26.73;;;;;;;4.18;100.00;102229.00;6306405;22;20014;-81
2023/12/19 00:51:46;;;;;;;42.35;23.05;;;;;;;4.33;100.00;102251.44;6304647;22;20077;-80
2023/12/19 00:54:15;;;;;;;51.72;33.33;;;;;;;4.18;100.00;102224.56;6304920;22;20014;-82
2023/12/19 00:56:42;;;;;;;40.88;21.58;;;;;;;4.23;100.00;102213.53;6304915;22;20003;-81
2023/12/19 00:59:07;;;;;;;42.67;21.27;;;;;;;4.21;100.00;102216.31;6304582;22;20010;-80
2023/12/19 01:01:36;;;;;;;39.22;21.45;;;;;;;4.17;100.00;102207.00;6304566;22;20007;-81
2023/12/19 01:04:01;;;;;;;49.13;22.65;;;;;;;4.13;100.00;102195.00;6304658;22;20007;-82
2023/12/19 01:06:28;;;;;;;43.70;21.30;;;;;;;4.10;100.00;102176.78;6304727;22;20041;-81
2023/12/19 01:08:54;;;;;;;38.03;21.35;;;;;;;4.32;100.00;102223.28;6304602;22;20057;-78
2023/12/19 01:11:22;;;;;;;38.72;20.75;;;;;;;4.24;100.00;102192.22;6306164;22;20019;-80
2023/12/19 01:13:47;;;;;;;50.25;25.25;;;;;;;4.23;100.00;102177.31;6304862;22;20038;-78
2023/12/19 01:16:19;;;;;;;47.47;28.85;;;;;;;4.12;100.00;102164.22;6304521;22;20432;-79
2023/12/19 01:18:44;;;;;;;49.75;24.08;;;;;;;4.32;100.00;102196.81;6305021;22;20081;-80
2023/12/19 01:21:09;;;;;;;42.63;20.02;;;;;;;4.29;100.00;102186.50;6305170;22;20428;-78
2023/12/19 01:23:35;;;;;;;41.28;21.85;;;;;;;4.10;100.00;102152.94;6304672;22;20000;-79
2023/12/19 01:26:00;;;;;;;50.20;25.55;;;;;;;4.18;100.00;102174.25;6304319;22;20003;-80
2023/12/19 01:28:26;;;;;;;46.28;25.02;;;;;;;4.38;100.00;102201.56;6303767;22;20519;-80
2023/12/19 01:30:51;;;;;;;44.47;20.42;;;;;;;4.48;100.00;102206.84;6303808;22;20007;-80
2023/12/19 01:33:17;;;;;;;46.00;23.10;;;;;;;4.51;100.00;102194.16;6305461;22;20074;-80
2023/12/19 01:35:42;;;;;;;51.78;25.75;;;;;;;4.41;100.00;102201.28;6305643;22;20010;-79
2023/12/19 01:38:08;;;;;;;48.05;26.85;;;;;;;4.37;100.00;102186.66;6303936;22;20003;-78
2023/12/19 01:40:33;;;;;;;44.58;25.75;;;;;;;4.46;100.00;102183.16;6303816;22;20007;-78
2023/12/19 01:42:59;;;;;;;49.67;25.05;;;;;;;4.48;100.00;102197.09;6305363;22;20003;-79
2023/12/19 01:45:28;;;;;;;48.10;25.92;;;;;;;4.46;100.00;102199.06;6305361;22;20102;-78
2023/12/19 01:47:54;;;;;;;43.40;22.17;;;;;;;4.57;100.00;102216.59;6305370;22;20007;-79
2023/12/19 01:50:19;;;;;;;45.17;23.38;;;;;;;4.58;100.00;102208.50;6303919;22;20466;-79
2023/12/19 01:52:49;;;;;;;49.30;26.60;;;;;;;4.59;100.00;102204.03;6303738;22;20007;-79
2023/12/19 01:55:15;;;;;;;41.38;20.15;;;;;;;4.58;100.00;102200.56;6329068;22;20479;-80
2023/12/19 01:57:41;;;;;;;37.92;20.85;;;;;;;4.59;100.00;102189.00;6303683;22;20003;-79
2023/12/19 02:00:07;;;;;;;42.65;21.83;;;;;;;4.52;100.00;102190.53;6305402;22;20086;-81
2023/12/19 02:02:32;;;;;;;49.88;22.65;;;;;;;4.56;100.00;102197.22;6305333;22;20004;-81
2023/12/19 02:04:59;;;;;;;40.40;22.63;;;;;;;4.63;100.00;102192.22;6303653;22;20026;-81
2023/12/19 02:07:24;;;;;;;43.08;23.35;;;;;;;4.58;100.00;102189.97;6303720;22;20009;-79
2023/12/19 02:09:52;;;;;;;42.97;21.33;;;;;;;4.53;100.00;102200.16;6303686;22;20392;-80
2023/12/19 02:12:17;;;;;;;48.75;23.85;;;;;;;4.55;100.00;102189.41;6305192;22;20082;-79
2023/12/19 02:14:43;;;;;;;45.30;23.20;;;;;;;4.55;100.00;102177.00;6303654;22;20093;-79
2023/12/19 02:17:11;;;;;;;43.47;23.60;;;;;;;4.53;100.00;102176.31;6303560;22;20011;-81
2023/12/19 02:19:50;;;;;;;43.75;22.88;;;;;;;4.59;100.00;102172.25;6303568;22;20310;-80
2023/12/19 02:22:15;;;;;;;58.08;30.48;;;;;;;4.56;100.00;102165.44;6305249;22;20010;-78
2023/12/19 02:24:41;;;;;;;50.50;22.92;;;;;;;4.49;100.00;102151.09;6305205;22;20007;-79
2023/12/19 02:27:08;;;;;;;50.70;21.95;;;;;;;4.52;100.00;102153.47;6305147;22;20012;-79
2023/12/19 02:29:34;;;;;;;51.55;21.95;;;;;;;4.43;100.00;102161.44;6305226;22;20480;-80
2023/12/19 02:31:59;;;;;;;66.65;28.75;;;;;;;4.46;100.00;102159.31;6305206;22;20007;-79
2023/12/19 02:34:25;;;;;;;56.42;29.33;;;;;;;4.43;100.00;102151.66;6304983;22;20121;-80
2023/12/19 02:36:50;;;;;;;54.78;25.98;;;;;;;4.41;100.00;102152.78;6305155;22;20367;-79
2023/12/19 02:39:15;;;;;;;52.85;24.58;;;;;;;4.45;100.00;102154.19;6303345;22;20013;-80
2023/12/19 02:41:41;;;;;;;51.22;24.15;;;;;;;4.41;100.00;102119.19;6303460;22;20053;-78
2023/12/19 02:44:06;;;;;;;50.58;20.40;;;;;;;4.45;100.00;102143.59;6305115;22;20047;-79
2023/12/19 02:46:32;;;;;;;46.03;23.42;;;;;;;4.50;100.00;102144.81;6303240;22;20007;-80
2023/12/19 02:48:58;;;;;;;48.28;20.67;;;;;;;4.43;100.00;102134.94;6304840;22;20007;-79
2023/12/19 02:51:24;;;;;;;57.35;26.52;;;;;;;4.40;100.00;102129.94;6304793;22;20022;-77
2023/12/19 02:53:50;;;;;;;58.38;28.65;;;;;;;4.34;100.00;102123.41;6304815;22;20003;-80
2023/12/19 02:56:15;;;;;;;60.80;26.45;;;;;;;4.35;100.00;102088.00;6304879;22;20052;-80
2023/12/19 02:58:41;;;;;;;57.72;25.25;;;;;;;4.40;100.00;102098.16;6303330;22;20318;-81
2023/12/19 03:01:07;;;;;;;64.88;25.52;;;;;;;4.39;100.00;102099.97;6303160;22;20027;-80
2023/12/19 03:03:32;;;;;;;67.88;29.90;;;;;;;4.35;100.00;102085.34;6302893;22;20018;-80
2023/12/19 03:05:58;;;;;;;60.60;25.60;;;;;;;4.40;100.00;102098.16;6304850;22;20370;-80
2023/12/19 03:08:23;;;;;;;58.47;22.92;;;;;;;4.43;100.00;102081.97;6306110;22;20060;-80
2023/12/19 03:10:48;;;;;;;62.67;26.13;;;;;;;4.30;100.00;102063.75;6306028;22;19999;-80
2023/12/19 03:13:14;;;;;;;62.33;31.50;;;;;;;4.38;100.00;102084.22;6306006;22;20042;-79
2023/12/19 03:15:39;;;;;;;64.93;24.67;;;;;;;4.38;100.00;102066.53;6304422;22;20495;-81
2023/12/19 03:18:04;;;;;;;59.50;25.33;;;;;;;4.34;100.00;102065.16;6304308;22;20034;-80
2023/12/19 03:20:30;;;;;;;56.55;22.75;;;;;;;4.40;100.00;102063.75;6304475;22;20026;-79
2023/12/19 03:22:55;;;;;;;61.53;21.70;;;;;;;4.35;100.00;102050.94;6305952;22;20019;-80
2023/12/19 03:25:21;;;;;;;66.43;27.23;;;;;;;4.40;100.00;102067.22;6304390;22;20007;-77
2023/12/19 03:27:46;;;;;;;65.57;25.70;;;;;;;4.41;100.00;102052.16;6304310;22;20539;-79
2023/12/19 03:30:11;;;;;;;74.70;28.58;;;;;;;4.39;100.00;102044.38;6304475;22;20010;-80
2023/12/19 03:32:37;;;;;;;57.65;21.80;;;;;;;4.45;100.00;102029.72;6304398;22;20045;-79
2023/12/19 03:35:02;;;;;;;68.18;28.80;;;;;;;4.40;100.00;102018.72;6305860;22;19999;-79
2023/12/19 03:37:28;;;;;;;69.50;26.52;;;;;;;4.38;100.00;102016.22;6305978;22;20507;-79
2023/12/19 03:39:53;;;;;;;56.50;24.38;;;;;;;4.39;100.00;102002.00;6305863;22;20033;-79
2023/12/19 03:42:18;;;;;;;79.22;31.92;;;;;;;4.33;100.00;102013.16;6306088;22;20075;-80
2023/12/19 03:44:44;;;;;;;62.53;26.38;;;;;;;4.39;100.00;102017.88;6305987;22;20370;-80
2023/12/19 03:47:13;;;;;;;67.68;30.73;;;;;;;4.49;100.00;102004.59;6306080;22;20480;-77
2023/12/19 03:49:39;;;;;;;74.68;25.73;;;;;;;4.39;100.00;101998.53;6304222;22;20003;-80
2023/12/19 03:52:04;;;;;;;62.88;27.10;;;;;;;4.47;100.00;101982.72;6305833;22;20003;-79
2023/12/19 03:54:29;;;;;;;62.85;24.17;;;;;;;4.47;100.00;101994.16;6305858;22;20510;-80
2023/12/19 03:56:55;;;;;;;59.58;24.75;;;;;;;4.42;100.00;101985.00;6304377;22;20474;-80
2023/12/19 03:59:20;;;;;;;89.07;30.80;;;;;;;4.42;100.00;101999.06;6304212;22;20089;-78
2023/12/19 04:01:46;;;;;;;90.07;34.58;;;;;;;4.49;100.00;101983.41;6305841;22;20003;-80
2023/12/19 04:04:11;;;;;;;75.75;28.80;;;;;;;4.44;100.00;101978.56;6304195;22;20011;-79
2023/12/19 04:06:45;;;;;;;92.07;36.45;;;;;;;4.51;100.00;101977.00;6305786;22;20011;-79
2023/12/19 04:09:10;;;;;;;77.47;26.63;;;;;;;4.49;100.00;101976.31;6306247;22;20412;-80
2023/12/19 04:11:36;;;;;;;81.10;26.00;;;;;;;4.51;100.00;101984.94;6305846;22;20010;-80
2023/12/19 04:14:02;;;;;;;70.07;25.20;;;;;;;4.55;100.00;101983.66;6304127;22;20062;-79
2023/12/19 04:16:28;;;;;;;83.70;27.13;;;;;;;4.55;100.00;101965.13;6330277;22;20056;-80
2023/12/19 04:18:53;;;;;;;90.50;31.75;;;;;;;4.57;100.00;101957.88;6303602;22;20007;-78
2023/12/19 04:21:18;;;;;;;84.18;30.58;;;;;;;4.56;100.00;101958.84;6305633;22;20035;-80
2023/12/19 04:23:44;;;;;;;74.80;24.20;;;;;;;4.65;100.00;101960.63;6305805;22;20011;-79
2023/12/19 04:26:10;;;;;;;77.50;32.45;;;;;;;4.67;100.00;101960.47;6305808;22;19999;-78
2023/12/19 04:28:36;;;;;;;103.32;31.90;;;;;;;4.68;100.00;101938.31;6305749;22;20007;-79
2023/12/19 04:31:02;;;;;;;85.47;29.63;;;;;;;4.62;100.00;101910.56;6304090;22;20034;-79
2023/12/19 04:33:27;;;;;;;102.38;33.10;;;;;;;4.72;100.00;101915.00;6305581;22;20015;-77
2023/12/19 04:35:52;;;;;;;86.93;34.22;;;;;;;4.79;100.00;101908.94;6305465;22;20003;-80
2023/12/19 04:38:18;;;;;;;81.93;30.90;;;;;;;4.80;100.00;101915.91;6304153;22;20011;-80
2023/12/19 04:40:43;;;;;;;86.00;30.05;;;;;;;4.76;100.00;101903.13;6305750;22;20003;-80
2023/12/19 04:43:08;;;;;;;90.32;42.30;;;;;;;4.88;100.00;101923.09;6304013;22;20007;-78
2023/12/19 04:45:34;;;;;;;83.60;30.60;;;;;;;4.79;100.00;101900.16;6304063;22;20011;-79
2023/12/19 04:47:59;;;;;;;76.63;30.15;;;;;;;4.86;100.00;101899.41;6305745;22;20102;-80
2023/12/19 04:50:24;;;;;;;86.43;38.75;;;;;;;4.86;100.00;101909.16;6305715;22;20011;-78
2023/12/19 04:52:49;;;;;;;70.00;28.60;;;;;;;4.92;100.00;101903.28;6305618;22;20060;-78
2023/12/19 04:55:15;;;;;;;76.15;30.60;;;;;;;4.89;100.00;101890.31;6303892;22;20048;-79
2023/12/19 04:57:40;;;;;;;74.68;27.88;;;;;;;4.95;100.00;101893.22;6305735;22;20077;-79
2023/12/19 05:00:06;;;;;;;77.15;33.75;;;;;;;4.98;100.00;101890.25;6305590;22;20015;-81
2023/12/19 05:02:32;;;;;;;57.85;25.13;;;;;;;4.98;100.00;101898.22;6304299;22;20010;-82
2023/12/19 05:04:57;;;;;;;67.40;26.30;;;;;;;4.98;100.00;101882.31;6305645;22;20023;-82
2023/12/19 05:07:24;;;;;;;64.13;28.42;;;;;;;5.06;100.00;101896.63;6305433;22;20007;-80
2023/12/19 05:09:50;;;;;;;60.97;27.58;;;;;;;5.01;100.00;101889.13;6305586;22;20052;-81
2023/12/19 05:12:15;;;;;;;75.53;34.25;;;;;;;5.06;100.00;101886.00;6303884;22;20015;-82
2023/12/19 05:14:40;;;;;;;60.13;27.15;;;;;;;5.13;100.00;101887.91;6303921;22;20065;-81
2023/12/19 05:17:06;;;;;;;67.30;30.35;;;;;;;5.11;100.00;101881.91;6305855;22;20010;-79
2023/12/19 05:19:31;;;;;;;69.35;29.17;;;;;;;5.18;100.00;101898.88;6303842;22;19999;-81
2023/12/19 05:21:57;;;;;;;63.85;27.85;;;;;;;5.19;100.00;101889.09;6305181;22;20030;-81
2023/12/19 05:24:22;;;;;;;77.80;31.23;;;;;;;5.17;100.00;101899.03;6303779;22;20065;-80
2023/12/19 05:26:47;;;;;;;65.68;28.63;;;;;;;5.21;100.00;101884.50;6303841;22;20436;-81
2023/12/19 05:29:13;;;;;;;53.95;26.30;;;;;;;5.29;100.00;101890.69;6305873;22;20003;-79
2023/12/19 05:31:38;;;;;;;60.45;31.35;;;;;;;5.36;100.00;101869.69;6305215;22;20329;-79
2023/12/19 05:34:03;;;;;;;56.33;25.23;;;;;;;5.37;100.00;101886.44;6305306;22;20002;-80
2023/12/19 05:36:33;;;;;;;62.20;31.05;;;;;;;5.31;100.00;101889.72;6305439;22;20049;-79
2023/12/19 05:38:59;;;;;;;57.22;36.03;;;;;;;5.40;100.00;101856.94;6303745;22;19999;-80
2023/12/19 05:41:24;;;;;;;53.95;27.40;;;;;;;5.39;100.00;101887.09;6306609;22;20046;-78
2023/12/19 05:43:53;;;;;;;56.13;26.98;;;;;;;5.31;100.00;101887.88;6305636;22;20021;-79
2023/12/19 05:46:19;;;;;;;58.88;30.70;;;;;;;5.41;100.00;101872.72;6305422;22;20014;-80
2023/12/19 05:48:44;;;;;;;53.10;28.20;;;;;;;5.40;100.00;101875.50;6303762;22;20003;-80
2023/12/19 05:51:10;;;;;;;50.40;21.65;;;;;;;5.38;100.00;101875.66;6305302;22;20007;-80
2023/12/19 05:53:37;;;;;;;44.90;24.23;;;;;;;5.42;100.00;101863.75;6303851;22;19999;-78
2023/12/19 05:56:04;;;;;;;53.15;32.50;;;;;;;5.43;100.00;101825.66;6305476;22;20015;-77
2023/12/19 05:58:29;;;;;;;53.53;29.25;;;;;;;5.44;100.00;101860.94;6305674;22;20490;-78
2023/12/19 06:00:55;;;;;;;44.58;25.42;;;;;;;5.56;100.00;101834.03;6303864;22;20003;-78
2023/12/19 06:03:21;;;;;;;47.50;26.83;;;;;;;5.51;100.00;101848.75;6305604;22;20029;-79
2023/12/19 06:05:46;;;;;;;57.55;27.30;;;;;;;5.57;100.00;101858.75;6305492;22;20007;-79
2023/12/19 06:08:11;;;;;;;50.47;28.48;;;;;;;5.61;100.00;101857.44;6305530;22;20436;-78
2023/12/19 06:10:37;;;;;;;50.95;27.48;;;;;;;5.57;100.00;101846.31;6303789;22;20094;-79
2023/12/19 06:13:02;;;;;;;45.13;26.58;;;;;;;5.65;100.00;101824.28;6303796;22;19999;-79
2023/12/19 06:15:28;;;;;;;46.28;23.67;;;;;;;5.65;100.00;101855.28;6305415;22;20451;-80
2023/12/19 06:17:53;;;;;;;43.75;24.95;;;;;;;5.53;100.00;101839.66;6305264;22;20420;-81
2023/12/19 06:20:18;;;;;;;45.90;24.80;;;;;;;5.62;100.00;101848.47;6305812;22;20003;-82
2023/12/19 06:22:44;;;;;;;44.13;25.13;;;;;;;5.51;100.00;101846.94;6305503;22;20056;-81
2023/12/19 06:25:09;;;;;;;50.28;26.38;;;;;;;5.58;100.00;101833.88;6305431;22;20332;-82
2023/12/19 06:27:35;;;;;;;47.75;27.40;;;;;;;5.49;100.00;101835.66;6305567;22;20074;-82
2023/12/19 06:30:02;;;;;;;47.85;25.92;;;;;;;5.58;100.00;101847.13;6305530;22;20488;-82
2023/12/19 06:32:27;;;;;;;45.72;24.65;;;;;;;5.53;100.00;101838.81;6305388;22;20011;-82
2023/12/19 06:34:55;;;;;;;43.00;21.67;;;;;;;5.58;100.00;101837.34;6303660;22;20026;-83
2023/12/19 06:37:20;;;;;;;48.63;25.90;;;;;;;5.59;100.00;101851.44;6305276;22;20066;-82
2023/12/19 06:39:46;;;;;;;41.90;22.42;;;;;;;5.58;100.00;101850.63;6329517;22;20003;-83
2023/12/19 06:42:11;;;;;;;40.95;22.95;;;;;;;5.59;100.00;101848.81;6307557;22;20011;-81
2023/12/19 06:44:36;;;;;;;45.05;22.95;;;;;;;5.62;100.00;101839.69;6308888;22;20016;-85
2023/12/19 06:47:02;;;;;;;42.58;26.83;;;;;;;5.63;100.00;101836.06;6307112;22;20078;-78
2023/12/19 06:49:27;;;;;;;39.33;22.17;;;;;;;5.66;100.00;101839.22;6308698;22;20435;-82
2023/12/19 06:51:53;;;;;;;45.40;30.52;;;;;;;5.69;100.00;101828.28;6307167;22;20061;-82
2023/12/19 06:54:18;;;;;;;42.33;22.58;;;;;;;5.70;100.00;101840.56;6308589;22;20007;-81
2023/12/19 06:56:44;;;;;;;35.78;22.45;;;;;;;5.76;100.00;101833.78;6308642;22;20011;-80
2023/12/19 06:59:09;;;;;;;38.40;21.80;;;;;;;5.75;100.00;101826.81;6308562;22;19999;-79
2023/12/19 07:01:35;;;;;;;37.78;24.55;;;;;;;5.73;100.00;101845.56;6306770;22;20037;-79
2023/12/19 07:04:01;;;;;;;31.50;18.70;;;;;;;5.78;100.00;101842.41;6308502;22;20132;-78
2023/12/19 07:06:27;;;;;;;33.55;19.45;;;;;;;5.79;100.00;101831.69;6306920;22;20082;-81
2023/12/19 07:08:52;;;;;;;41.40;23.13;;;;;;;5.78;100.00;101834.47;6306840;22;20030;-81
2023/12/19 07:11:20;;;;;;;37.67;20.25;;;;;;;5.80;100.00;101828.03;6306756;22;20011;-78
2023/12/19 07:13:46;;;;;;;31.98;18.45;;;;;;;5.81;100.00;101821.72;6308423;22;20007;-80
2023/12/19 07:16:17;;;;;;;35.65;19.45;;;;;;;5.82;100.00;101815.44;6308301;22;20056;-79
2023/12/19 07:18:43;;;;;;;41.20;21.33;;;;;;;5.89;100.00;101824.44;6308241;22;20082;-79
2023/12/19 07:21:24;;;;;;;41.20;25.48;;;;;;;5.88;100.00;101819.28;6308450;22;20385;-79
2023/12/19 07:23:50;;;;;;;35.10;25.88;;;;;;;5.89;100.00;101813.84;6308240;22;20436;-80
2023/12/19 07:26:27;;;;;;;38.22;21.50;;;;;;;5.94;100.00;101823.13;6306654;22;20033;-80
2023/12/19 07:28:53;;;;;;;33.38;22.27;;;;;;;5.87;100.00;101804.34;6308255;22;20025;-78
2023/12/19 07:31:23;;;;;;;34.95;20.77;;;;;;;5.92;100.00;101799.41;6308133;22;20082;-76
2023/12/19 07:33:50;;;;;;;30.65;18.83;;;;;;;5.94;100.00;101815.16;6306628;22;20018;-75
2023/12/19 07:36:16;;;;;;;29.27;19.05;;;;;;;6.02;100.00;101815.19;6308299;22;20004;-75
2023/12/19 07:38:41;;;;;;;26.98;16.63;;;;;;;5.93;100.00;101813.50;6306726;22;20478;-75
2023/12/19 07:41:06;;;;;;;31.80;23.20;;;;;;;5.97;100.00;101820.16;6308349;22;20424;-76
2023/12/19 07:43:31;;;;;;;32.08;17.85;;;;;;;5.97;100.00;101810.38;6308285;22;20006;-76
2023/12/19 07:45:57;;;;;;;34.50;22.50;;;;;;;5.96;100.00;101816.66;6308152;22;20007;-76
2023/12/19 07:48:22;;;;;;;30.45;19.77;;;;;;;6.01;100.00;101811.72;6308204;22;20010;-77
2023/12/19 07:50:47;;;;;;;31.63;18.83;;;;;;;6.05;100.00;101815.69;6308199;22;20061;-76
2023/12/19 07:53:13;;;;;;;31.08;19.77;;;;;;;6.08;100.00;101818.06;6306678;22;20013;-76
2023/12/19 07:55:38;;;;;;;26.15;16.67;;;;;;;6.02;100.00;101810.72;6306032;22;20370;-76
2023/12/19 07:58:06;;;;;;;29.83;18.42;;;;;;;6.11;100.00;101823.06;6306193;22;20010;-76
2023/12/19 08:00:32;;;;;;;31.73;18.67;;;;;;;6.14;100.00;101813.94;6304689;22;20011;-77
2023/12/19 08:02:58;;;;;;;23.48;15.52;;;;;;;6.10;100.00;101801.97;6306123;22;20022;-76
2023/12/19 08:05:23;;;;;;;24.75;14.50;;;;;;;6.15;100.00;101802.31;6306241;22;20012;-77
2023/12/19 08:07:49;;;;;;;30.40;19.90;;;;;;;6.10;100.00;101786.88;6304527;22;20015;-77
2023/12/19 08:10:14;;;;;;;28.15;18.98;;;;;;;6.10;100.00;101791.34;6304829;22;20010;-79
2023/12/19 08:12:39;;;;;;;30.83;17.67;;;;;;;6.05;100.00;101793.63;6304407;22;20015;-79
2023/12/19 08:15:05;;;;;;;33.00;25.35;;;;;;;5.94;100.00;101780.66;6306103;22;20009;-79
2023/12/19 08:17:30;;;;;;;35.65;17.98;;;;;;;5.86;100.00;101789.41;6304484;22;20321;-79
2023/12/19 08:19:56;;;;;;;34.83;20.90;;;;;;;5.87;100.00;101778.63;6305910;22;20116;-79
2023/12/19 08:22:21;;;;;;;34.10;19.40;;;;;;;5.80;100.00;101790.88;6305961;22;20007;-80
2023/12/19 08:24:46;;;;;;;36.55;19.25;;;;;;;5.79;100.00;101791.88;6304186;22;20082;-81
2023/12/19 08:27:12;;;;;;;37.78;18.55;;;;;;;5.72;100.00;101777.56;6306068;22;20018;-79
2023/12/19 08:29:37;;;;;;;34.67;20.85;;;;;;;5.76;100.00;101741.75;6304467;22;20030;-79
2023/12/19 08:32:04;;;;;;;45.08;23.15;;;;;;;5.73;100.00;101781.03;6306017;22;20003;-79
2023/12/19 08:34:29;;;;;;;49.13;25.88;;;;;;;5.63;100.00;101767.06;6304091;22;20000;-80
2023/12/19 08:36:54;;;;;;;47.33;23.10;;;;;;;5.69;100.00;101769.09;6305974;22;20359;-79
2023/12/19 08:39:20;;;;;;;48.97;23.05;;;;;;;5.68;100.00;101775.38;6305924;22;20379;-80
2023/12/19 08:41:48;;;;;;;47.65;24.63;;;;;;;5.74;100.00;101766.78;6305963;22;20083;-80
2023/12/19 08:44:14;;;;;;;49.35;29.02;;;;;;;5.69;100.00;101751.34;6305911;22;20424;-79
2023/12/19 08:46:39;;;;;;;45.72;22.88;;;;;;;5.67;100.00;101752.50;6304375;22;20425;-80
2023/12/19 08:49:04;;;;;;;42.47;20.13;;;;;;;5.68;100.00;101751.50;6305968;22;20008;-78
2023/12/19 08:51:30;;;;;;;57.80;27.02;;;;;;;5.59;100.00;101759.44;6305895;22;20305;-81
2023/12/19 08:53:56;;;;;;;50.38;28.88;;;;;;;5.66;100.00;101743.69;6305869;22;20413;-81
2023/12/19 08:56:21;;;;;;;51.65;25.98;;;;;;;5.62;100.00;101752.97;6305966;22;20387;-80
2023/12/19 08:58:48;;;;;;;47.00;22.45;;;;;;;5.71;100.00;101751.19;6305734;22;20008;-79
2023/12/19 09:01:14;;;;;;;61.55;26.90;;;;;;;5.61;100.00;101735.41;6305708;22;20437;-80
2023/12/19 09:03:39;;;;;;;44.50;20.67;;;;;;;5.67;100.00;101736.56;6305651;22;20012;-79
2023/12/19 09:06:05;;;;;;;49.53;19.95;;;;;;;5.63;100.00;101730.75;6304146;22;20027;-80
2023/12/19 09:08:32;;;;;;;45.10;20.23;;;;;;;5.68;100.00;101736.41;6305845;22;20339;-79
2023/12/19 09:10:58;;;;;;;52.58;24.52;;;;;;;5.59;100.00;101742.69;6305818;22;20086;-79
2023/12/19 09:13:23;;;;;;;55.88;29.45;;;;;;;5.59;100.00;101735.56;6304029;22;20007;-78
2023/12/19 09:15:48;;;;;;;49.42;24.48;;;;;;;5.58;100.00;101730.41;6304056;22;20007;-79
2023/12/19 09:18:14;;;;;;;54.00;29.42;;;;;;;5.64;100.00;101735.06;6305672;22;20038;-79
2023/12/19 09:20:39;;;;;;;54.55;22.65;;;;;;;5.62;100.00;101739.72;6305781;22;20003;-80
2023/12/19 09:23:05;;;;;;;40.75;19.73;;;;;;;5.64;100.00;101713.84;6305785;22;20060;-80
2023/12/19 09:25:30;;;;;;;57.15;26.15;;;;;;;5.58;100.00;101707.38;6304154;22;20007;-78
2023/12/19 09:27:56;;;;;;;50.78;21.88;;;;;;;5.64;100.00;101708.53;6305791;22;20037;-79
2023/12/19 09:30:23;;;;;;;45.70;25.85;;;;;;;5.65;100.00;101704.91;6304186;22;19999;-80
2023/12/19 09:32:49;;;;;;;41.80;20.67;;;;;;;5.65;100.00;101702.25;6305876;22;20344;-79
2023/12/19 09:35:14;;;;;;;65.32;29.55;;;;;;;5.55;100.00;101704.22;6305737;22;20443;-77
2023/12/19 09:37:39;;;;;;;37.10;20.85;;;;;;;5.62;100.00;101712.34;6305725;22;20066;-77
2023/12/19 09:40:11;;;;;;;54.92;24.35;;;;;;;5.64;100.00;101708.53;6304173;22;20035;-78
2023/12/19 09:42:38;;;;;;;45.83;19.27;;;;;;;5.63;100.00;101720.16;6304249;22;19999;-77
2023/12/19 09:45:06;;;;;;;51.53;26.58;;;;;;;5.65;100.00;101710.19;6304049;22;20007;-79
2023/12/19 09:47:35;;;;;;;31.75;18.08;;;;;;;5.64;100.00;101686.50;6304049;22;20059;-78
2023/12/19 09:50:03;;;;;;;37.47;18.45;;;;;;;5.67;100.00;101692.31;6306200;22;20324;-80
2023/12/19 09:52:29;;;;;;;47.60;29.10;;;;;;;5.62;100.00;101694.59;6305662;22;20003;-80
2023/12/19 09:54:55;;;;;;;39.90;17.98;;;;;;;5.71;100.00;101690.97;6303918;22;20041;-81
2023/12/19 09:57:21;;;;;;;35.88;20.48;;;;;;;5.71;100.00;101693.63;6305709;22;20422;-79
2023/12/19 09:59:47;;;;;;;32.17;17.27;;;;;;;5.76;100.00;101671.91;6304116;22;20007;-80
2023/12/19 10:02:17;;;;;;;44.00;24.90;;;;;;;5.70;100.00;101673.41;6305736;22;20003;-80
2023/12/19 10:04:47;;;;;;;33.53;17.00;;;;;;;5.77;100.00;101674.41;6305675;22;20038;-78
2023/12/19 10:07:14;;;;;;;36.35;17.17;;;;;;;5.68;100.00;101669.25;6303937;22;20459;-80
2023/12/19 10:09:54;;;;;;;32.45;15.93;;;;;;;5.77;100.00;101669.09;6305544;22;20332;-80
2023/12/19 10:12:21;;;;;;;39.13;20.95;;;;;;;5.72;100.00;101662.63;6305500;22;20010;-79
2023/12/19 10:14:47;;;;;;;28.92;15.65;;;;;;;5.77;100.00;101644.38;6305535;22;20007;-77
2023/12/19 10:17:15;;;;;;;35.25;20.08;;;;;;;5.75;100.00;101657.00;6304836;22;20038;-76
2023/12/19 10:19:40;;;;;;;28.70;17.67;;;;;;;5.83;100.00;101655.22;6305435;22;20064;-78
2023/12/19 10:22:07;;;;;;;25.25;14.73;;;;;;;5.78;100.00;101644.25;6303942;22;20377;-78
2023/12/19 10:24:33;;;;;;;26.75;16.75;;;;;;;5.88;100.00;101636.97;6303858;22;20070;-79
2023/12/19 10:27:02;;;;;;;31.90;18.92;;;;;;;5.80;100.00;101663.50;6305436;22;20011;-78
2023/12/19 10:29:36;;;;;;;35.58;16.67;;;;;;;5.87;100.00;101653.88;6305393;22;20026;-78
2023/12/19 10:32:19;;;;;;;24.58;14.57;;;;;;;5.87;100.00;101645.09;6303960;22;20010;-79
2023/12/19 10:34:45;;;;;;;;;;;;;;;5.84;100.00;101640.94;6305834;22;20011;-79
2023/12/19 10:37:11;;;;;;;32.28;21.63;;;;;;;5.84;100.00;101627.69;6305240;22;19918;-79
2023/12/19 10:39:38;;;;;;;29.98;21.13;;;;;;;5.83;100.00;101618.06;6303851;22;20050;-79
2023/12/19 10:42:05;;;;;;;23.33;15.27;;;;;;;5.84;100.00;101622.38;6305527;22;20334;-79
2023/12/19 10:44:32;;;;;;;26.40;17.58;;;;;;;5.95;100.00;101610.63;6303644;22;20472;-79
2023/12/19 10:47:01;;;;;;;25.05;13.23;;;;;;;5.86;100.00;101615.06;6305403;22;20003;-81
2023/12/19 10:49:26;;;;;;;31.95;17.95;;;;;;;5.95;100.00;101609.78;6329661;22;20082;-80
2023/12/19 10:51:56;;;;;;;25.95;13.43;;;;;;;5.96;100.00;101616.75;6305182;22;20034;-80
2023/12/19 10:54:24;;;;;;;25.48;16.08;;;;;;;5.94;100.00;101600.16;6305155;22;20395;-80
2023/12/19 10:57:11;;;;;;;28.10;15.57;;;;;;;5.94;100.00;101586.91;6303521;22;20043;-80
2023/12/19 11:00:09;;;;;;;28.67;19.10;;;;;;;5.98;100.00;101577.59;6305219;22;19999;-80
2023/12/19 11:02:40;;;;;;;24.98;17.33;;;;;;;6.03;100.00;101540.78;6305150;22;20003;-81
2023/12/19 11:05:12;;;;;;;26.23;14.27;;;;;;;6.01;100.00;101553.38;6305207;22;20007;-82